This is the latest recevied weather packets stored in our database for station/object DB0HRC-6. If no packets are shown the sender has not sent any weather packets the latest 10 day(s).
| Time | Temp. | Humidity | Pressure | Rain* | Wind** | Luminosity | Snow |
|---|---|---|---|---|---|---|---|
| 1777095028 | 25° C | 100% | 44 hPa | 0 mm | - | - | - |
| 1777094127 | 25° C | 100% | 44 hPa | 0 mm | - | - | - |
| 1777093226 | 2.78° C | 89% | 1005.4 hPa | 0 mm | - | - | - |
| 1777092326 | 2.22° C | 89% | 1005.3 hPa | 0 mm | - | - | - |
| 1777091426 | 25° C | 100% | 43 hPa | 0 mm | - | - | - |
| 1777090526 | 25° C | 100% | 43 hPa | 0 mm | - | - | - |
| 1777089626 | 25° C | 100% | 44 hPa | 0 mm | - | - | - |
| 1777088726 | 25° C | 100% | 44 hPa | 0 mm | - | - | - |
| 1777087826 | 25° C | 100% | 44 hPa | 0 mm | - | - | - |
| 1777086926 | 25° C | 100% | 44 hPa | 0 mm | - | - | - |
| 1777086026 | 25° C | 100% | 44 hPa | 0 mm | - | - | - |
| 1777085126 | 25° C | 100% | 44 hPa | 0 mm | - | - | - |
| 1777084226 | 25° C | 100% | 44 hPa | 0 mm | - | - | - |
| 1777083327 | 25° C | 100% | 45 hPa | 0 mm | - | - | - |
| 1777082426 | 25° C | 100% | 45 hPa | 0 mm | - | - | - |
| 1777081526 | 25° C | 100% | 45 hPa | 0 mm | - | - | - |
| 1777080626 | 25° C | 100% | 45 hPa | 0 mm | - | - | - |
| 1777079726 | 25° C | 100% | 45 hPa | 0 mm | - | - | - |
| 1777078826 | 25° C | 100% | 45 hPa | 0 mm | - | - | - |
| 1777077926 | 25° C | 100% | 45 hPa | 0 mm | - | - | - |
| 1777077025 | 25° C | 100% | 45 hPa | 0 mm | - | - | - |
| 1777076126 | 25° C | 100% | 45 hPa | 0 mm | - | - | - |
| 1777075228 | 6.11° C | 86% | 1006.3 hPa | 0 mm | - | - | - |
| 1777074326 | 25° C | 100% | 45 hPa | 0 mm | - | - | - |
| 1777073426 | 25° C | 100% | 45 hPa | 0 mm | - | - | - |
* Rain latest hour (hover to see other rain measurements)
** Current wind speed in m/s (hover to see current wind gust speed)